sensor_id;sensor_type;location;lat;lon;timestamp;temperature;humidity
40249;DHT22;25969;49.970;11.062;2023-09-19T04:10:22;15.70;99.90
40249;DHT22;25969;49.970;11.062;2023-09-19T04:20:23;15.70;99.90
40249;DHT22;25969;49.970;11.062;2023-09-19T04:30:24;15.70;99.90
40249;DHT22;25969;49.970;11.062;2023-09-19T04:40:25;15.60;99.90
40249;DHT22;25969;49.970;11.062;2023-09-19T04:50:27;15.70;99.90
40249;DHT22;25969;49.970;11.062;2023-09-19T05:00:31;15.70;99.90
40249;DHT22;25969;49.970;11.062;2023-09-19T05:10:36;15.60;99.90
40249;DHT22;25969;49.970;11.062;2023-09-19T05:20:38;15.70;99.90
40249;DHT22;25969;49.970;11.062;2023-09-19T05:30:39;15.70;99.90
40249;DHT22;25969;49.970;11.062;2023-09-19T05:40:40;15.80;99.90
40249;DHT22;25969;49.970;11.062;2023-09-19T05:50:43;15.70;99.90
40249;DHT22;25969;49.970;11.062;2023-09-19T06:00:44;15.00;99.90
40249;DHT22;25969;49.970;11.062;2023-09-19T06:10:45;15.80;99.90
40249;DHT22;25969;49.970;11.062;2023-09-19T06:20:48;15.60;99.90
40249;DHT22;25969;49.970;11.062;2023-09-19T06:30:49;15.70;99.90
40249;DHT22;25969;49.970;11.062;2023-09-19T06:40:50;16.00;99.90
40249;DHT22;25969;49.970;11.062;2023-09-19T06:50:52;16.50;99.90
40249;DHT22;25969;49.970;11.062;2023-09-19T07:00:53;17.50;99.90
40249;DHT22;25969;49.970;11.062;2023-09-19T07:10:55;16.60;99.90
40249;DHT22;25969;49.970;11.062;2023-09-19T07:20:57;17.20;99.90
40249;DHT22;25969;49.970;11.062;2023-09-19T07:31:02;17.40;99.90
40249;DHT22;25969;49.970;11.062;2023-09-19T07:41:03;16.20;99.90
40249;DHT22;25969;49.970;11.062;2023-09-19T07:51:06;17.00;99.90
40249;DHT22;25969;49.970;11.062;2023-09-19T08:01:09;17.80;99.90
40249;DHT22;25969;49.970;11.062;2023-09-19T08:11:10;18.00;99.90
40249;DHT22;25969;49.970;11.062;2023-09-19T08:21:12;19.20;99.90
40249;DHT22;25969;49.970;11.062;2023-09-19T08:31:16;18.10;99.90
40249;DHT22;25969;49.970;11.062;2023-09-19T08:41:17;18.20;99.70
40249;DHT22;25969;49.970;11.062;2023-09-19T08:51:26;20.40;94.50
40249;DHT22;25969;49.970;11.062;2023-09-19T09:01:28;21.40;88.80
40249;DHT22;25969;49.970;11.062;2023-09-19T09:11:33;21.50;85.00
40249;DHT22;25969;49.970;11.062;2023-09-19T09:21:34;20.60;82.60
40249;DHT22;25969;49.970;11.062;2023-09-19T09:31:39;20.90;81.90
40249;DHT22;25969;49.970;11.062;2023-09-19T09:41:43;21.80;77.60
40249;DHT22;25969;49.970;11.062;2023-09-19T09:51:48;21.80;78.40
40249;DHT22;25969;49.970;11.062;2023-09-19T10:02:01;22.20;71.80
40249;DHT22;25969;49.970;11.062;2023-09-19T10:12:06;18.90;80.60
40249;DHT22;25969;49.970;11.062;2023-09-19T10:22:09;21.40;74.70
40249;DHT22;25969;49.970;11.062;2023-09-19T10:32:12;24.40;63.60
40249;DHT22;25969;49.970;11.062;2023-09-19T10:42:20;25.90;58.20
40249;DHT22;25969;49.970;11.062;2023-09-19T10:52:24;27.30;55.00
40249;DHT22;25969;49.970;11.062;2023-09-19T11:02:25;26.20;56.50
40249;DHT22;25969;49.970;11.062;2023-09-19T11:33:27;22.80;63.10
40249;DHT22;25969;49.970;11.062;2023-09-19T11:43:34;26.10;52.50
40249;DHT22;25969;49.970;11.062;2023-09-19T11:53:36;25.60;53.70
40249;DHT22;25969;49.970;11.062;2023-09-19T12:03:38;25.50;52.80
40249;DHT22;25969;49.970;11.062;2023-09-19T12:13:46;25.00;55.00
40249;DHT22;25969;49.970;11.062;2023-09-19T12:24:03;24.40;51.50
40249;DHT22;25969;49.970;11.062;2023-09-19T12:34:08;25.00;51.50
40249;DHT22;25969;49.970;11.062;2023-09-19T12:44:12;23.80;52.00
40249;DHT22;25969;49.970;11.062;2023-09-19T12:54:13;26.20;50.50
40249;DHT22;25969;49.970;11.062;2023-09-19T13:04:20;28.50;43.10
40249;DHT22;25969;49.970;11.062;2023-09-19T13:14:27;29.00;44.90
40249;DHT22;25969;49.970;11.062;2023-09-19T13:24:28;23.90;52.20
40249;DHT22;25969;49.970;11.062;2023-09-19T13:34:31;26.50;46.90
40249;DHT22;25969;49.970;11.062;2023-09-19T13:44:32;26.30;45.80
40249;DHT22;25969;49.970;11.062;2023-09-19T13:54:33;23.90;50.60
40249;DHT22;25969;49.970;11.062;2023-09-19T14:04:33;24.80;49.60
40249;DHT22;25969;49.970;11.062;2023-09-19T14:14:35;24.80;49.70
40249;DHT22;25969;49.970;11.062;2023-09-19T14:24:35;22.80;52.70
40249;DHT22;25969;49.970;11.062;2023-09-19T14:34:36;25.10;49.50
40249;DHT22;25969;49.970;11.062;2023-09-19T14:44:42;24.80;48.00
40249;DHT22;25969;49.970;11.062;2023-09-19T14:54:43;23.60;50.00
40249;DHT22;25969;49.970;11.062;2023-09-19T15:04:43;23.10;51.50
40249;DHT22;25969;49.970;11.062;2023-09-19T15:14:47;22.90;52.00
40249;DHT22;25969;49.970;11.062;2023-09-19T15:24:47;23.10;52.00
40249;DHT22;25969;49.970;11.062;2023-09-19T15:34:48;22.10;55.30
40249;DHT22;25969;49.970;11.062;2023-09-19T15:44:49;22.50;54.80
40249;DHT22;25969;49.970;11.062;2023-09-19T15:54:52;22.00;54.80
40249;DHT22;25969;49.970;11.062;2023-09-19T16:04:54;21.20;56.40
40249;DHT22;25969;49.970;11.062;2023-09-19T16:14:56;20.40;59.00
40249;DHT22;25969;49.970;11.062;2023-09-19T16:24:57;20.80;59.20
40249;DHT22;25969;49.970;11.062;2023-09-19T16:34:57;21.00;59.00
40249;DHT22;25969;49.970;11.062;2023-09-19T16:44:58;20.90;58.50
40249;DHT22;25969;49.970;11.062;2023-09-19T16:54:59;20.00;60.70
40249;DHT22;25969;49.970;11.062;2023-09-19T17:05:00;19.30;63.60
40249;DHT22;25969;49.970;11.062;2023-09-19T17:15:01;18.80;65.80
40249;DHT22;25969;49.970;11.062;2023-09-19T17:25:03;18.30;67.50
40249;DHT22;25969;49.970;11.062;2023-09-19T17:35:04;17.70;71.30
40249;DHT22;25969;49.970;11.062;2023-09-19T17:45:05;17.20;74.40
40249;DHT22;25969;49.970;11.062;2023-09-19T17:55:06;17.00;74.90
40249;DHT22;25969;49.970;11.062;2023-09-19T18:05:07;17.10;76.20
40249;DHT22;25969;49.970;11.062;2023-09-19T18:15:08;17.10;75.90
40249;DHT22;25969;49.970;11.062;2023-09-19T18:25:09;16.90;76.50
40249;DHT22;25969;49.970;11.062;2023-09-19T18:35:12;16.70;78.20
40249;DHT22;25969;49.970;11.062;2023-09-19T18:45:15;16.90;78.60
40249;DHT22;25969;49.970;11.062;2023-09-19T18:55:16;16.90;78.60
40249;DHT22;25969;49.970;11.062;2023-09-19T19:05:18;17.10;78.00
40249;DHT22;25969;49.970;11.062;2023-09-19T19:15:19;16.90;79.00
40249;DHT22;25969;49.970;11.062;2023-09-19T19:25:20;16.80;79.90
40249;DHT22;25969;49.970;11.062;2023-09-19T19:35:21;17.00;79.50
40249;DHT22;25969;49.970;11.062;2023-09-19T19:45:24;17.00;79.60
40249;DHT22;25969;49.970;11.062;2023-09-19T19:55:25;17.00;80.40
40249;DHT22;25969;49.970;11.062;2023-09-19T20:05:29;17.00;80.80
40249;DHT22;25969;49.970;11.062;2023-09-19T20:15:30;16.80;81.20
40249;DHT22;25969;49.970;11.062;2023-09-19T20:25:34;16.80;81.90
40249;DHT22;25969;49.970;11.062;2023-09-19T20:35:38;16.90;81.90
40249;DHT22;25969;49.970;11.062;2023-09-19T20:45:39;17.00;81.90
40249;DHT22;25969;49.970;11.062;2023-09-19T20:55:41;17.10;81.60
40249;DHT22;25969;49.970;11.062;2023-09-19T21:05:42;17.10;81.90
40249;DHT22;25969;49.970;11.062;2023-09-19T21:15:43;17.10;82.20
40249;DHT22;25969;49.970;11.062;2023-09-19T21:25:53;16.90;82.30
40249;DHT22;25969;49.970;11.062;2023-09-19T21:35:55;17.00;83.10
40249;DHT22;25969;49.970;11.062;2023-09-19T21:45:56;17.00;83.10
40249;DHT22;25969;49.970;11.062;2023-09-19T21:56:02;16.90;84.70
